sensor_id;sensor_type;location;lat;lon;timestamp;pressure;altitude;pressure_sealevel;temperature;humidity
43934;BME280;59081;42.706;23.306;2023-07-28T00:00:42;95251.22;;;16.95;53.27
43934;BME280;59081;42.706;23.306;2023-07-28T00:03:08;95235.06;;;16.84;53.49
43934;BME280;59081;42.706;23.306;2023-07-28T00:05:33;95225.66;;;16.82;53.35
43934;BME280;59081;42.706;23.306;2023-07-28T00:07:59;95237.00;;;16.78;53.48
43934;BME280;59081;42.706;23.306;2023-07-28T00:10:24;95215.09;;;16.71;53.53
43934;BME280;59081;42.706;23.306;2023-07-28T00:12:50;95284.25;;;17.17;53.49
43934;BME280;59081;42.706;23.306;2023-07-28T00:15:15;95276.97;;;17.19;53.46
43934;BME280;59081;42.706;23.306;2023-07-28T00:17:41;95214.16;;;16.74;53.22
43934;BME280;59081;42.706;23.306;2023-07-28T00:20:08;95158.00;;;16.22;53.40
43934;BME280;59081;42.706;23.306;2023-07-28T00:22:33;95184.50;;;16.47;53.73
43934;BME280;59081;42.706;23.306;2023-07-28T00:24:59;95309.13;;;17.20;53.95
43934;BME280;59081;42.706;23.306;2023-07-28T00:27:24;95258.88;;;16.85;53.94
43934;BME280;59081;42.706;23.306;2023-07-28T00:29:50;95209.84;;;16.49;54.19
43934;BME280;59081;42.706;23.306;2023-07-28T00:32:15;95227.53;;;16.61;54.26
43934;BME280;59081;42.706;23.306;2023-07-28T00:34:41;95213.09;;;16.48;54.75
43934;BME280;59081;42.706;23.306;2023-07-28T00:37:06;95230.97;;;16.56;55.04
43934;BME280;59081;42.706;23.306;2023-07-28T00:39:32;95178.50;;;16.01;55.40
43934;BME280;59081;42.706;23.306;2023-07-28T00:41:57;95232.66;;;16.29;55.62
43934;BME280;59081;42.706;23.306;2023-07-28T00:44:22;95201.69;;;15.98;55.60
43934;BME280;59081;42.706;23.306;2023-07-28T00:46:48;95247.53;;;16.26;55.84
43934;BME280;59081;42.706;23.306;2023-07-28T00:49:13;95187.25;;;15.85;55.96
43934;BME280;59081;42.706;23.306;2023-07-28T00:51:39;95219.56;;;15.73;56.67
43934;BME280;59081;42.706;23.306;2023-07-28T00:54:06;95223.88;;;15.74;56.86
43934;BME280;59081;42.706;23.306;2023-07-28T00:56:31;95231.53;;;16.12;56.88
43934;BME280;59081;42.706;23.306;2023-07-28T00:58:57;95218.44;;;17.14;53.25
43934;BME280;59081;42.706;23.306;2023-07-28T01:01:23;95201.28;;;15.90;55.26
43934;BME280;59081;42.706;23.306;2023-07-28T01:03:50;95197.44;;;14.58;61.09
43934;BME280;59081;42.706;23.306;2023-07-28T01:06:32;95220.06;;;15.53;58.48
43934;BME280;59081;42.706;23.306;2023-07-28T01:09:10;95249.00;;;15.80;57.93
43934;BME280;59081;42.706;23.306;2023-07-28T01:11:37;95306.38;;;16.25;57.81
43934;BME280;59081;42.706;23.306;2023-07-28T01:14:02;95190.50;;;15.41;57.76
43934;BME280;59081;42.706;23.306;2023-07-28T01:16:28;95256.78;;;15.48;58.77
43934;BME280;59081;42.706;23.306;2023-07-28T01:18:53;95215.00;;;15.43;58.36
43934;BME280;59081;42.706;23.306;2023-07-28T01:21:26;95242.41;;;15.68;58.03
43934;BME280;59081;42.706;23.306;2023-07-28T01:24:21;95200.66;;;15.44;58.17
43934;BME280;59081;42.706;23.306;2023-07-28T01:26:52;95221.63;;;15.54;57.91
43934;BME280;59081;42.706;23.306;2023-07-28T01:29:18;95228.38;;;15.62;57.77
43934;BME280;59081;42.706;23.306;2023-07-28T01:31:48;95206.56;;;15.37;57.91
43934;BME280;59081;42.706;23.306;2023-07-28T01:34:14;95182.44;;;15.10;58.25
43934;BME280;59081;42.706;23.306;2023-07-28T01:36:39;95270.31;;;15.74;58.51
43934;BME280;59081;42.706;23.306;2023-07-28T01:39:05;95285.25;;;15.85;58.47
43934;BME280;59081;42.706;23.306;2023-07-28T01:41:30;95168.25;;;15.08;58.10
43934;BME280;59081;42.706;23.306;2023-07-28T01:43:56;95255.41;;;15.44;58.73
43934;BME280;59081;42.706;23.306;2023-07-28T01:46:22;95211.81;;;15.26;59.01
43934;BME280;59081;42.706;23.306;2023-07-28T01:48:47;95172.75;;;14.96;58.84
43934;BME280;59081;42.706;23.306;2023-07-28T01:51:13;95253.09;;;15.42;58.97
43934;BME280;59081;42.706;23.306;2023-07-28T01:53:38;95230.06;;;15.18;59.73
43934;BME280;59081;42.706;23.306;2023-07-28T01:56:04;95209.75;;;14.84;60.07
43934;BME280;59081;42.706;23.306;2023-07-28T01:58:29;95185.00;;;14.72;60.12
43934;BME280;59081;42.706;23.306;2023-07-28T02:00:55;95223.00;;;14.98;59.91
43934;BME280;59081;42.706;23.306;2023-07-28T02:03:20;95263.63;;;15.38;59.85
43934;BME280;59081;42.706;23.306;2023-07-28T02:05:45;95222.97;;;15.17;59.39
43934;BME280;59081;42.706;23.306;2023-07-28T02:08:11;95193.72;;;14.97;59.36
43934;BME280;59081;42.706;23.306;2023-07-28T02:10:36;95193.88;;;14.94;59.47
43934;BME280;59081;42.706;23.306;2023-07-28T02:13:02;95185.25;;;14.92;59.25
43934;BME280;59081;42.706;23.306;2023-07-28T02:15:27;95193.56;;;15.01;59.34
43934;BME280;59081;42.706;23.306;2023-07-28T02:17:53;95156.78;;;14.82;59.52
43934;BME280;59081;42.706;23.306;2023-07-28T02:20:18;95256.94;;;15.45;59.30
43934;BME280;59081;42.706;23.306;2023-07-28T02:22:44;95224.66;;;15.23;59.58
43934;BME280;59081;42.706;23.306;2023-07-28T02:25:10;95236.47;;;15.33;59.64
43934;BME280;59081;42.706;23.306;2023-07-28T02:27:39;95181.88;;;14.88;59.37
43934;BME280;59081;42.706;23.306;2023-07-28T02:30:05;95218.81;;;15.12;59.65
43934;BME280;59081;42.706;23.306;2023-07-28T02:32:31;95323.09;;;15.74;59.45
43934;BME280;59081;42.706;23.306;2023-07-28T02:34:57;95221.13;;;15.14;59.38
43934;BME280;59081;42.706;23.306;2023-07-28T02:37:24;95318.13;;;15.78;59.28
43934;BME280;59081;42.706;23.306;2023-07-28T02:39:50;95203.41;;;15.02;59.06
43934;BME280;59081;42.706;23.306;2023-07-28T02:42:15;95241.72;;;15.31;59.33
43934;BME280;59081;42.706;23.306;2023-07-28T02:44:41;95281.59;;;15.61;59.00
43934;BME280;59081;42.706;23.306;2023-07-28T02:47:06;95192.31;;;15.02;58.97
43934;BME280;59081;42.706;23.306;2023-07-28T02:49:32;95299.34;;;15.73;58.88
43934;BME280;59081;42.706;23.306;2023-07-28T02:51:57;95255.28;;;15.29;59.03
43934;BME280;59081;42.706;23.306;2023-07-28T02:54:23;95221.28;;;15.01;59.32
43934;BME280;59081;42.706;23.306;2023-07-28T02:56:50;95223.78;;;15.59;58.50
43934;BME280;59081;42.706;23.306;2023-07-28T02:59:16;95289.53;;;18.53;49.25
43934;BME280;59081;42.706;23.306;2023-07-28T03:01:41;95230.84;;;14.36;59.88
43934;BME280;59081;42.706;23.306;2023-07-28T03:04:07;95255.78;;;15.09;58.63
43934;BME280;59081;42.706;23.306;2023-07-28T03:06:32;95254.81;;;15.40;57.80
43934;BME280;59081;42.706;23.306;2023-07-28T03:08:58;95263.59;;;15.56;57.06
43934;BME280;59081;42.706;23.306;2023-07-28T03:11:24;95209.22;;;15.22;57.33
43934;BME280;59081;42.706;23.306;2023-07-28T03:13:49;95213.44;;;15.00;57.66
43934;BME280;59081;42.706;23.306;2023-07-28T03:16:15;95194.38;;;14.65;58.33
43934;BME280;59081;42.706;23.306;2023-07-28T03:18:40;95208.69;;;14.82;58.57
43934;BME280;59081;42.706;23.306;2023-07-28T03:21:06;95214.38;;;14.78;58.46
43934;BME280;59081;42.706;23.306;2023-07-28T03:23:31;95209.91;;;14.81;58.37
43934;BME280;59081;42.706;23.306;2023-07-28T03:25:57;95200.22;;;14.85;58.19
43934;BME280;59081;42.706;23.306;2023-07-28T03:28:22;95206.34;;;14.89;58.17
43934;BME280;59081;42.706;23.306;2023-07-28T03:30:48;95269.16;;;15.29;57.93
43934;BME280;59081;42.706;23.306;2023-07-28T03:33:13;95246.69;;;15.09;58.36
43934;BME280;59081;42.706;23.306;2023-07-28T03:35:38;95319.56;;;15.46;58.26
43934;BME280;59081;42.706;23.306;2023-07-28T03:38:04;95265.50;;;15.14;58.58
43934;BME280;59081;42.706;23.306;2023-07-28T03:40:29;95334.81;;;15.59;58.59
43934;BME280;59081;42.706;23.306;2023-07-28T03:42:55;95253.31;;;15.11;58.42
43934;BME280;59081;42.706;23.306;2023-07-28T03:45:20;95313.88;;;15.31;58.84
43934;BME280;59081;42.706;23.306;2023-07-28T03:47:46;95222.41;;;14.58;59.06
43934;BME280;59081;42.706;23.306;2023-07-28T03:50:11;95232.28;;;14.68;59.22
43934;BME280;59081;42.706;23.306;2023-07-28T03:52:37;95202.97;;;14.31;59.37
43934;BME280;59081;42.706;23.306;2023-07-28T03:55:03;95310.53;;;15.00;59.51
43934;BME280;59081;42.706;23.306;2023-07-28T03:57:28;95265.22;;;14.66;60.03
43934;BME280;59081;42.706;23.306;2023-07-28T03:59:54;95264.13;;;14.63;60.17
43934;BME280;59081;42.706;23.306;2023-07-28T04:02:19;95319.16;;;15.02;59.99
43934;BME280;59081;42.706;23.306;2023-07-28T04:04:45;95274.00;;;14.83;62.91
43934;BME280;59081;42.706;23.306;2023-07-28T04:07:10;95241.59;;;15.16;75.29
43934;BME280;59081;42.706;23.306;2023-07-28T04:09:36;95322.69;;;15.99;68.71
43934;BME280;59081;42.706;23.306;2023-07-28T04:12:01;95193.00;;;15.30;63.36
43934;BME280;59081;42.706;23.306;2023-07-28T04:14:26;95289.88;;;16.21;60.10
43934;BME280;59081;42.706;23.306;2023-07-28T04:16:52;95289.59;;;16.43;58.73
43934;BME280;59081;42.706;23.306;2023-07-28T04:19:17;95327.19;;;16.86;56.12
43934;BME280;59081;42.706;23.306;2023-07-28T04:21:43;95316.00;;;16.95;56.60
43934;BME280;59081;42.706;23.306;2023-07-28T04:24:09;95293.75;;;16.95;55.58
43934;BME280;59081;42.706;23.306;2023-07-28T04:26:35;95319.78;;;17.22;55.47
43934;BME280;59081;42.706;23.306;2023-07-28T04:29:01;95347.34;;;17.88;66.36
43934;BME280;59081;42.706;23.306;2023-07-28T04:31:26;95322.88;;;18.27;60.64
43934;BME280;59081;42.706;23.306;2023-07-28T04:33:52;95308.69;;;18.60;55.78
43934;BME280;59081;42.706;23.306;2023-07-28T04:36:17;95285.81;;;18.76;53.13
43934;BME280;59081;42.706;23.306;2023-07-28T04:38:43;95299.75;;;18.96;49.70
43934;BME280;59081;42.706;23.306;2023-07-28T04:41:08;95298.13;;;19.10;51.79
43934;BME280;59081;42.706;23.306;2023-07-28T04:43:34;95292.84;;;18.92;47.05
43934;BME280;59081;42.706;23.306;2023-07-28T04:45:59;95286.03;;;18.58;47.25
43934;BME280;59081;42.706;23.306;2023-07-28T04:48:25;95191.47;;;17.99;47.51
43934;BME280;59081;42.706;23.306;2023-07-28T04:50:50;95325.16;;;18.78;47.92
43934;BME280;59081;42.706;23.306;2023-07-28T04:53:16;95225.69;;;17.85;48.50
43934;BME280;59081;42.706;23.306;2023-07-28T04:55:41;95302.41;;;18.30;49.50
43934;BME280;59081;42.706;23.306;2023-07-28T04:58:06;95300.81;;;18.08;48.63
43934;BME280;59081;42.706;23.306;2023-07-28T05:00:32;95282.47;;;17.87;50.09
43934;BME280;59081;42.706;23.306;2023-07-28T05:02:57;95328.47;;;18.27;49.71
43934;BME280;59081;42.706;23.306;2023-07-28T05:05:23;95326.63;;;18.24;49.64
43934;BME280;59081;42.706;23.306;2023-07-28T05:07:48;95336.91;;;18.32;50.22
43934;BME280;59081;42.706;23.306;2023-07-28T05:10:14;95193.38;;;17.43;49.10
43934;BME280;59081;42.706;23.306;2023-07-28T05:12:39;95247.22;;;17.84;49.16
43934;BME280;59081;42.706;23.306;2023-07-28T05:15:05;95294.38;;;17.88;49.72
43934;BME280;59081;42.706;23.306;2023-07-28T05:17:36;95315.00;;;18.25;49.81
43934;BME280;59081;42.706;23.306;2023-07-28T05:20:01;95275.81;;;18.14;48.99
43934;BME280;59081;42.706;23.306;2023-07-28T05:22:27;95233.66;;;17.92;47.92
43934;BME280;59081;42.706;23.306;2023-07-28T05:24:52;95343.84;;;18.72;48.18
43934;BME280;59081;42.706;23.306;2023-07-28T05:27:17;95273.47;;;18.27;48.10
43934;BME280;59081;42.706;23.306;2023-07-28T05:29:43;95307.25;;;18.50;48.32
43934;BME280;59081;42.706;23.306;2023-07-28T05:32:08;95253.56;;;18.20;47.66
43934;BME280;59081;42.706;23.306;2023-07-28T05:34:34;95233.28;;;18.19;48.14
43934;BME280;59081;42.706;23.306;2023-07-28T05:36:59;95301.56;;;18.79;47.68
43934;BME280;59081;42.706;23.306;2023-07-28T05:39:25;95292.50;;;18.84;47.62
43934;BME280;59081;42.706;23.306;2023-07-28T05:41:50;95255.25;;;18.67;47.00
43934;BME280;59081;42.706;23.306;2023-07-28T05:44:16;95292.06;;;18.71;47.16
43934;BME280;59081;42.706;23.306;2023-07-28T05:46:42;95239.75;;;18.11;47.63
43934;BME280;59081;42.706;23.306;2023-07-28T05:49:07;95197.50;;;17.33;49.54
43934;BME280;59081;42.706;23.306;2023-07-28T05:51:32;95222.88;;;17.64;50.48
43934;BME280;59081;42.706;23.306;2023-07-28T05:53:58;95241.44;;;17.88;49.73
43934;BME280;59081;42.706;23.306;2023-07-28T05:56:23;95341.53;;;18.21;50.80
43934;BME280;59081;42.706;23.306;2023-07-28T05:58:49;95291.00;;;17.54;51.89
43934;BME280;59081;42.706;23.306;2023-07-28T06:01:15;95258.75;;;17.48;51.77
43934;BME280;59081;42.706;23.306;2023-07-28T06:03:42;95295.63;;;17.57;52.02
43934;BME280;59081;42.706;23.306;2023-07-28T06:06:08;95270.88;;;16.91;53.13
43934;BME280;59081;42.706;23.306;2023-07-28T06:08:34;95240.31;;;16.67;53.96
43934;BME280;59081;42.706;23.306;2023-07-28T06:11:00;95209.19;;;16.78;53.70
43934;BME280;59081;42.706;23.306;2023-07-28T06:13:28;95263.63;;;17.23;53.38
43934;BME280;59081;42.706;23.306;2023-07-28T06:15:53;95306.09;;;17.48;51.92
43934;BME280;59081;42.706;23.306;2023-07-28T06:18:23;95268.06;;;17.45;53.91
43934;BME280;59081;42.706;23.306;2023-07-28T06:20:49;95262.38;;;17.98;53.84
43934;BME280;59081;42.706;23.306;2023-07-28T06:23:14;95254.09;;;18.18;54.81
43934;BME280;59081;42.706;23.306;2023-07-28T06:25:40;95323.56;;;19.12;49.47
43934;BME280;59081;42.706;23.306;2023-07-28T06:28:10;95221.75;;;18.47;48.76
43934;BME280;59081;42.706;23.306;2023-07-28T06:30:36;95206.81;;;18.29;49.45
43934;BME280;59081;42.706;23.306;2023-07-28T06:33:02;95288.00;;;19.33;48.41
43934;BME280;59081;42.706;23.306;2023-07-28T06:35:28;95192.25;;;19.32;46.42
43934;BME280;59081;42.706;23.306;2023-07-28T06:37:54;95310.38;;;20.16;48.22
43934;BME280;59081;42.706;23.306;2023-07-28T06:40:19;95285.56;;;20.35;45.35
43934;BME280;59081;42.706;23.306;2023-07-28T06:42:45;95265.38;;;19.83;45.20
43934;BME280;59081;42.706;23.306;2023-07-28T06:45:11;95240.78;;;19.61;45.38
43934;BME280;59081;42.706;23.306;2023-07-28T06:47:37;95203.19;;;19.93;45.60
43934;BME280;59081;42.706;23.306;2023-07-28T06:50:03;95214.34;;;20.30;45.20
43934;BME280;59081;42.706;23.306;2023-07-28T06:52:30;95263.03;;;21.03;44.67
43934;BME280;59081;42.706;23.306;2023-07-28T06:54:56;95325.34;;;21.41;43.18
43934;BME280;59081;42.706;23.306;2023-07-28T06:57:21;95228.28;;;20.19;44.13
43934;BME280;59081;42.706;23.306;2023-07-28T06:59:48;95223.50;;;19.94;43.99
43934;BME280;59081;42.706;23.306;2023-07-28T07:02:13;95213.53;;;19.50;44.26
43934;BME280;59081;42.706;23.306;2023-07-28T07:04:38;95225.66;;;19.47;44.80
43934;BME280;59081;42.706;23.306;2023-07-28T07:07:04;95189.41;;;19.27;45.08
43934;BME280;59081;42.706;23.306;2023-07-28T07:09:30;95280.38;;;20.16;44.83
43934;BME280;59081;42.706;23.306;2023-07-28T07:11:56;95225.09;;;20.00;44.50
43934;BME280;59081;42.706;23.306;2023-07-28T07:14:21;95219.19;;;19.93;44.49
43934;BME280;59081;42.706;23.306;2023-07-28T07:16:48;95242.63;;;20.01;45.27
43934;BME280;59081;42.706;23.306;2023-07-28T07:19:13;95245.53;;;20.17;44.28
43934;BME280;59081;42.706;23.306;2023-07-28T07:21:38;95241.16;;;20.05;43.61
43934;BME280;59081;42.706;23.306;2023-07-28T07:24:04;95273.81;;;19.88;44.56
43934;BME280;59081;42.706;23.306;2023-07-28T07:26:30;95244.25;;;19.50;45.32
43934;BME280;59081;42.706;23.306;2023-07-28T07:28:56;95236.06;;;19.72;45.01
43934;BME280;59081;42.706;23.306;2023-07-28T07:31:22;95248.06;;;20.15;44.68
43934;BME280;59081;42.706;23.306;2023-07-28T07:33:48;95312.28;;;20.73;43.72
43934;BME280;59081;42.706;23.306;2023-07-28T07:36:15;95189.31;;;20.10;43.08
43934;BME280;59081;42.706;23.306;2023-07-28T07:38:41;95289.19;;;20.83;44.23
43934;BME280;59081;42.706;23.306;2023-07-28T07:41:07;95251.97;;;20.72;42.21
43934;BME280;59081;42.706;23.306;2023-07-28T07:43:34;95259.69;;;20.88;42.17
43934;BME280;59081;42.706;23.306;2023-07-28T07:45:59;95279.50;;;20.84;42.59
43934;BME280;59081;42.706;23.306;2023-07-28T07:48:25;95233.66;;;20.71;42.31
43934;BME280;59081;42.706;23.306;2023-07-28T07:50:51;95310.06;;;21.42;41.67
43934;BME280;59081;42.706;23.306;2023-07-28T07:53:16;95247.09;;;21.32;40.96
43934;BME280;59081;42.706;23.306;2023-07-28T07:55:42;95199.16;;;21.07;40.55
43934;BME280;59081;42.706;23.306;2023-07-28T07:58:07;95244.34;;;21.54;40.51
43934;BME280;59081;42.706;23.306;2023-07-28T08:00:33;95275.72;;;21.64;40.94
43934;BME280;59081;42.706;23.306;2023-07-28T08:02:59;95213.25;;;21.52;40.13
43934;BME280;59081;42.706;23.306;2023-07-28T08:05:24;95260.94;;;21.85;40.45
43934;BME280;59081;42.706;23.306;2023-07-28T08:07:50;95248.44;;;21.98;40.04
43934;BME280;59081;42.706;23.306;2023-07-28T08:10:16;95178.59;;;21.83;39.46
43934;BME280;59081;42.706;23.306;2023-07-28T08:12:43;95222.63;;;22.49;38.48
43934;BME280;59081;42.706;23.306;2023-07-28T08:15:10;95293.47;;;22.95;38.09
43934;BME280;59081;42.706;23.306;2023-07-28T08:17:35;95252.69;;;22.66;38.84
43934;BME280;59081;42.706;23.306;2023-07-28T08:20:01;95220.88;;;22.35;38.30
43934;BME280;59081;42.706;23.306;2023-07-28T08:22:26;95263.13;;;22.82;38.54
43934;BME280;59081;42.706;23.306;2023-07-28T08:24:52;95225.66;;;22.51;38.80
43934;BME280;59081;42.706;23.306;2023-07-28T08:27:17;95199.72;;;22.23;39.40
43934;BME280;59081;42.706;23.306;2023-07-28T08:29:43;95220.06;;;22.51;39.45
43934;BME280;59081;42.706;23.306;2023-07-28T08:32:09;95235.78;;;22.88;38.42
43934;BME280;59081;42.706;23.306;2023-07-28T08:34:34;95214.13;;;22.77;38.66
43934;BME280;59081;42.706;23.306;2023-07-28T08:37:00;95210.91;;;22.45;38.78
43934;BME280;59081;42.706;23.306;2023-07-28T08:39:25;95227.66;;;22.73;37.50
43934;BME280;59081;42.706;23.306;2023-07-28T08:42:00;95259.50;;;22.92;38.55
43934;BME280;59081;42.706;23.306;2023-07-28T08:44:30;95201.22;;;22.46;37.97
43934;BME280;59081;42.706;23.306;2023-07-28T08:46:56;95224.44;;;23.10;37.14
43934;BME280;59081;42.706;23.306;2023-07-28T08:49:21;95261.13;;;23.76;35.89
43934;BME280;59081;42.706;23.306;2023-07-28T08:51:50;95180.28;;;23.52;36.12
43934;BME280;59081;42.706;23.306;2023-07-28T08:54:16;95238.06;;;24.13;35.27
43934;BME280;59081;42.706;23.306;2023-07-28T08:56:43;95223.25;;;23.41;35.50
43934;BME280;59081;42.706;23.306;2023-07-28T08:59:09;95216.81;;;23.87;35.66
43934;BME280;59081;42.706;23.306;2023-07-28T09:01:41;95159.34;;;23.77;34.31
43934;BME280;59081;42.706;23.306;2023-07-28T09:04:10;95192.75;;;24.16;34.24
43934;BME280;59081;42.706;23.306;2023-07-28T09:06:37;95164.53;;;23.98;33.67
43934;BME280;59081;42.706;23.306;2023-07-28T09:09:06;95191.09;;;24.32;34.53
43934;BME280;59081;42.706;23.306;2023-07-28T09:11:32;95207.03;;;24.73;34.35
43934;BME280;59081;42.706;23.306;2023-07-28T09:14:00;95220.50;;;25.04;34.00
43934;BME280;59081;42.706;23.306;2023-07-28T09:16:26;95211.22;;;25.28;33.81
43934;BME280;59081;42.706;23.306;2023-07-28T09:19:14;95247.03;;;26.02;32.90
43934;BME280;59081;42.706;23.306;2023-07-28T09:21:42;95220.78;;;25.76;33.06
43934;BME280;59081;42.706;23.306;2023-07-28T09:24:12;95167.34;;;25.46;32.94
43934;BME280;59081;42.706;23.306;2023-07-28T09:26:44;95156.28;;;25.66;32.30
43934;BME280;59081;42.706;23.306;2023-07-28T09:29:20;95231.06;;;26.37;32.12
43934;BME280;59081;42.706;23.306;2023-07-28T09:31:49;95191.97;;;26.41;32.12
43934;BME280;59081;42.706;23.306;2023-07-28T09:34:28;95178.28;;;26.58;30.84
43934;BME280;59081;42.706;23.306;2023-07-28T09:36:58;95200.66;;;26.83;31.20
43934;BME280;59081;42.706;23.306;2023-07-28T09:39:24;95085.91;;;25.87;31.13
43934;BME280;59081;42.706;23.306;2023-07-28T09:41:49;95162.94;;;26.27;31.41
43934;BME280;59081;42.706;23.306;2023-07-28T09:44:16;95146.56;;;26.52;30.87
43934;BME280;59081;42.706;23.306;2023-07-28T09:46:59;95135.66;;;26.96;30.30
43934;BME280;59081;42.706;23.306;2023-07-28T09:52:02;95149.72;;;26.62;29.69
43934;BME280;59081;42.706;23.306;2023-07-28T09:54:29;95154.47;;;26.80;30.96
43934;BME280;59081;42.706;23.306;2023-07-28T09:56:56;95203.06;;;27.39;29.77
43934;BME280;59081;42.706;23.306;2023-07-28T09:59:41;95119.84;;;27.14;30.04
43934;BME280;59081;42.706;23.306;2023-07-28T10:02:08;95163.88;;;27.77;29.07
43934;BME280;59081;42.706;23.306;2023-07-28T10:04:35;95096.91;;;27.17;29.02
43934;BME280;59081;42.706;23.306;2023-07-28T10:07:02;95180.66;;;27.96;29.04
43934;BME280;59081;42.706;23.306;2023-07-28T10:09:30;95089.69;;;27.71;28.69
43934;BME280;59081;42.706;23.306;2023-07-28T10:11:56;95107.72;;;28.10;28.38
43934;BME280;59081;42.706;23.306;2023-07-28T10:14:26;95122.09;;;28.32;28.16
43934;BME280;59081;42.706;23.306;2023-07-28T10:16:52;95107.53;;;28.07;27.44
43934;BME280;59081;42.706;23.306;2023-07-28T10:19:21;95131.31;;;27.63;28.03
43934;BME280;59081;42.706;23.306;2023-07-28T10:21:46;95121.00;;;27.31;28.08
43934;BME280;59081;42.706;23.306;2023-07-28T10:24:12;95066.94;;;27.01;29.16
43934;BME280;59081;42.706;23.306;2023-07-28T10:26:40;95095.63;;;27.60;28.05
43934;BME280;59081;42.706;23.306;2023-07-28T10:29:15;95180.03;;;28.11;27.89
43934;BME280;59081;42.706;23.306;2023-07-28T10:31:51;95095.50;;;28.15;27.47
43934;BME280;59081;42.706;23.306;2023-07-28T10:34:18;95140.31;;;28.81;27.93
43934;BME280;59081;42.706;23.306;2023-07-28T10:36:44;95108.59;;;28.82;27.47
43934;BME280;59081;42.706;23.306;2023-07-28T10:39:15;95021.31;;;28.16;27.30
43934;BME280;59081;42.706;23.306;2023-07-28T10:42:07;95132.72;;;29.19;27.79
43934;BME280;59081;42.706;23.306;2023-07-28T10:44:34;95073.19;;;28.75;26.65
43934;BME280;59081;42.706;23.306;2023-07-28T10:47:00;95153.00;;;29.23;26.83
43934;BME280;59081;42.706;23.306;2023-07-28T10:49:25;95137.34;;;29.45;26.83
43934;BME280;59081;42.706;23.306;2023-07-28T10:51:51;95102.22;;;29.56;26.27
43934;BME280;59081;42.706;23.306;2023-07-28T10:54:17;95128.53;;;29.71;26.46
43934;BME280;59081;42.706;23.306;2023-07-28T10:56:45;95118.88;;;29.82;26.19
43934;BME280;59081;42.706;23.306;2023-07-28T10:59:11;95124.38;;;30.18;26.14
43934;BME280;59081;42.706;23.306;2023-07-28T11:01:38;95072.13;;;30.13;25.40
43934;BME280;59081;42.706;23.306;2023-07-28T11:04:12;95077.25;;;29.92;25.81
43934;BME280;59081;42.706;23.306;2023-07-28T11:06:41;95135.56;;;30.24;25.52
43934;BME280;59081;42.706;23.306;2023-07-28T11:09:08;95132.28;;;30.50;24.97
43934;BME280;59081;42.706;23.306;2023-07-28T11:11:38;95096.94;;;29.98;25.12
43934;BME280;59081;42.706;23.306;2023-07-28T11:14:07;95042.03;;;29.50;26.38
43934;BME280;59081;42.706;23.306;2023-07-28T11:16:40;95045.44;;;29.71;25.22
43934;BME280;59081;42.706;23.306;2023-07-28T11:19:11;95077.47;;;29.05;25.83
43934;BME280;59081;42.706;23.306;2023-07-28T11:21:40;95099.19;;;29.76;26.11
43934;BME280;59081;42.706;23.306;2023-07-28T11:24:10;95085.19;;;30.01;25.74
43934;BME280;59081;42.706;23.306;2023-07-28T11:26:37;95077.06;;;29.90;24.76
43934;BME280;59081;42.706;23.306;2023-07-28T11:29:03;95029.91;;;29.87;24.66
43934;BME280;59081;42.706;23.306;2023-07-28T11:31:29;95026.22;;;30.48;24.66
43934;BME280;59081;42.706;23.306;2023-07-28T11:33:54;95066.63;;;30.86;23.81
43934;BME280;59081;42.706;23.306;2023-07-28T11:36:28;95030.88;;;30.68;22.72
43934;BME280;59081;42.706;23.306;2023-07-28T11:38:56;95098.75;;;31.19;22.95
43934;BME280;59081;42.706;23.306;2023-07-28T11:41:23;95034.06;;;30.79;23.57
43934;BME280;59081;42.706;23.306;2023-07-28T11:43:49;95036.75;;;31.10;22.39
43934;BME280;59081;42.706;23.306;2023-07-28T11:46:38;95091.56;;;31.51;22.62
43934;BME280;59081;42.706;23.306;2023-07-28T11:51:44;95079.53;;;32.09;21.78
43934;BME280;59081;42.706;23.306;2023-07-28T11:54:14;95074.81;;;32.04;21.99
43934;BME280;59081;42.706;23.306;2023-07-28T11:56:41;95076.47;;;31.90;22.69
43934;BME280;59081;42.706;23.306;2023-07-28T11:59:07;95032.19;;;31.72;22.30
43934;BME280;59081;42.706;23.306;2023-07-28T12:01:32;95021.16;;;31.19;22.89
43934;BME280;59081;42.706;23.306;2023-07-28T12:03:58;95035.09;;;31.64;22.79
43934;BME280;59081;42.706;23.306;2023-07-28T12:06:26;95071.50;;;32.15;22.97
43934;BME280;59081;42.706;23.306;2023-07-28T12:08:51;95035.22;;;32.16;22.58
43934;BME280;59081;42.706;23.306;2023-07-28T12:11:17;95008.16;;;32.25;22.38
43934;BME280;59081;42.706;23.306;2023-07-28T12:13:52;95041.38;;;32.81;22.04
43934;BME280;59081;42.706;23.306;2023-07-28T12:16:47;95009.66;;;32.77;22.26
43934;BME280;59081;42.706;23.306;2023-07-28T12:19:13;95009.53;;;33.02;22.39
43934;BME280;59081;42.706;23.306;2023-07-28T12:21:39;94987.41;;;33.20;21.48
43934;BME280;59081;42.706;23.306;2023-07-28T12:24:04;95059.59;;;33.94;20.94
43934;BME280;59081;42.706;23.306;2023-07-28T12:26:30;94946.25;;;33.60;20.55
43934;BME280;59081;42.706;23.306;2023-07-28T12:28:55;94977.63;;;33.50;20.63
43934;BME280;59081;42.706;23.306;2023-07-28T12:31:20;94976.28;;;32.88;21.35
43934;BME280;59081;42.706;23.306;2023-07-28T12:33:47;95049.28;;;33.44;21.61
43934;BME280;59081;42.706;23.306;2023-07-28T12:36:12;94975.63;;;33.33;21.92
43934;BME280;59081;42.706;23.306;2023-07-28T12:38:37;94978.63;;;33.35;21.44
43934;BME280;59081;42.706;23.306;2023-07-28T12:41:03;94954.28;;;33.34;20.78
43934;BME280;59081;42.706;23.306;2023-07-28T12:43:28;94950.84;;;33.09;21.29
43934;BME280;59081;42.706;23.306;2023-07-28T12:45:54;94967.16;;;32.99;21.46
43934;BME280;59081;42.706;23.306;2023-07-28T12:48:19;94998.78;;;32.49;21.56
43934;BME280;59081;42.706;23.306;2023-07-28T12:50:45;94994.69;;;33.04;21.49
43934;BME280;59081;42.706;23.306;2023-07-28T12:53:11;94968.22;;;32.76;20.87